Time;durP1;ratioP1;P1;durP2;ratioP2;P2;SDS_P1;SDS_P2;PMS_P1;PMS_P2;Temp;Humidity;BMP_temperature;BMP_pressure;BME280_temperature;BME280_humidity;BME280_pressure;Samples;Min_cycle;Max_cycle;Signal;HPM_P1;HPM_P2
2022/03/17 00:00:46;;;;;;;22.00;19.80;;;14.50;99.70;;;;;;5063736;28;20429;-84
2022/03/17 00:03:36;;;;;;;23.57;19.60;;;13.00;96.80;;;;;;5064767;28;20178;-85
2022/03/17 00:06:17;;;;;;;21.43;19.03;;;13.00;96.90;;;;;;5092841;23;20508;-85
2022/03/17 00:08:46;;;;;;;22.43;18.17;;;13.30;97.30;;;;;;5025535;28;20438;-84
2022/03/17 00:11:15;;;;;;;22.00;18.67;;;13.10;96.70;;;;;;5023042;28;20831;-84
2022/03/17 00:13:41;;;;;;;20.67;18.47;;;13.00;98.90;;;;;;5026676;28;20414;-84
2022/03/17 00:16:12;;;;;;;23.13;20.73;;;14.20;99.20;;;;;;5023737;28;20423;-84
2022/03/17 00:19:09;;;;;;;22.33;20.20;;;13.00;97.80;;;;;;5026485;28;20518;-84
2022/03/17 00:21:40;;;;;;;23.80;21.10;;;12.10;98.40;;;;;;5024886;28;20517;-84
2022/03/17 00:24:07;;;;;;;21.43;18.70;;;13.30;97.90;;;;;;5025427;28;20415;-85
2022/03/17 00:26:34;;;;;;;20.30;18.00;;;12.90;98.40;;;;;;5023263;28;20559;-84
2022/03/17 00:29:15;;;;;;;;;;;;;;;;;;;;;
2022/03/17 00:31:43;;;;;;;21.73;19.10;;;15.20;98.80;;;;;;5025980;28;20418;-85
2022/03/17 00:34:12;;;;;;;22.77;20.20;;;13.10;98.00;;;;;;5026711;28;20510;-84
2022/03/17 00:36:42;;;;;;;20.77;18.67;;;13.50;98.50;;;;;;5023915;28;20530;-84
2022/03/17 00:39:17;;;;;;;24.47;20.00;;;13.00;97.90;;;;;;5026667;28;20414;-84
2022/03/17 00:41:45;;;;;;;22.00;19.70;;;14.00;99.50;;;;;;5027303;28;20437;-84
2022/03/17 00:44:11;;;;;;;23.10;20.80;;;13.40;98.50;;;;;;5029662;28;20438;-84
2022/03/17 00:46:38;;;;;;;23.57;21.00;;;13.40;98.80;;;;;;5026880;28;20543;-84
2022/03/17 00:49:04;;;;;;;22.20;19.90;;;13.10;98.00;;;;;;5028460;28;20427;-84
2022/03/17 00:51:38;;;;;;;23.83;21.47;;;12.80;98.00;;;;;;5026688;28;20450;-83
2022/03/17 00:54:06;;;;;;;23.27;20.63;;;13.10;98.60;;;;;;5028877;28;20869;-83
2022/03/17 00:56:32;;;;;;;22.10;19.87;;;12.80;99.20;;;;;;5028230;28;20430;-84
2022/03/17 00:59:32;;;;;;;23.17;20.73;;;12.70;99.20;;;;;;5028181;28;20445;-83
2022/03/17 01:01:58;;;;;;;23.30;18.67;;;12.80;97.40;;;;;;5038172;28;20655;-84
2022/03/17 01:04:27;;;;;;;23.80;20.87;;;12.80;99.40;;;;;;5027964;28;20458;-84
2022/03/17 01:06:59;;;;;;;26.87;20.70;;;12.80;98.80;;;;;;5026324;28;20627;-83
2022/03/17 01:09:24;;;;;;;22.67;20.27;;;11.80;98.20;;;;;;5027756;28;20507;-83
2022/03/17 01:11:50;;;;;;;23.93;20.40;;;14.80;99.90;;;;;;5026447;28;20442;-83
2022/03/17 01:14:18;;;;;;;22.20;19.90;;;12.80;99.20;;;;;;5029456;28;20217;-84
2022/03/17 01:16:54;;;;;;;;;;;;;;;;;;;;;
2022/03/17 01:19:22;;;;;;;22.97;20.57;;;14.50;99.90;;;;;;5019257;28;20440;-84
2022/03/17 01:21:50;;;;;;;22.63;20.23;;;11.50;98.50;;;;;;5026890;28;20426;-84
2022/03/17 01:24:22;;;;;;;23.83;21.00;;;14.30;99.90;;;;;;5027968;28;20529;-84
2022/03/17 01:26:47;;;;;;;23.67;21.13;;;12.90;97.90;;;;;;5025875;28;20482;-84
2022/03/17 01:29:26;;;;;;;23.80;18.17;;;13.00;99.60;;;;;;5027084;28;20458;-82
2022/03/17 01:32:02;;;;;;;22.53;18.93;;;12.80;98.10;;;;;;5027478;28;20271;-83
2022/03/17 01:34:30;;;;;;;21.50;18.80;;;12.70;98.90;;;;;;5058031;28;20811;-83
2022/03/17 01:36:55;;;;;;;25.10;21.60;;;12.50;98.50;;;;;;5028864;28;20437;-84
2022/03/17 01:39:21;;;;;;;25.10;20.53;;;14.20;99.00;;;;;;5027595;28;20454;-83
2022/03/17 01:41:50;;;;;;;20.73;18.10;;;15.20;99.90;;;;;;5026188;28;20183;-83
2022/03/17 01:44:15;;;;;;;23.17;20.67;;;12.40;98.30;;;;;;5027590;28;20195;-84
2022/03/17 01:49:35;;;;;;;21.97;19.07;;;12.70;98.70;;;;;;5028327;28;20187;-83
2022/03/17 01:52:01;;;;;;;23.13;20.67;;;12.10;97.60;;;;;;5024266;28;20935;-83
2022/03/17 01:54:35;;;;;;;23.10;20.70;;;12.60;99.80;;;;;;5027150;28;20477;-84
2022/03/17 01:57:06;;;;;;;22.80;20.13;;;13.00;98.20;;;;;;5030960;28;20258;-84
2022/03/17 01:59:34;;;;;;;28.37;25.33;;;12.50;98.40;;;;;;5028299;28;20499;-84
2022/03/17 02:02:18;;;;;;;24.33;19.87;;;12.60;98.50;;;;;;5031271;28;20422;-85
2022/03/17 02:04:52;;;;;;;22.57;20.17;;;13.90;99.10;;;;;;5021904;28;20457;-83
2022/03/17 02:07:21;;;;;;;23.40;16.90;;;12.60;98.70;;;;;;5030353;28;20485;-84
2022/03/17 02:09:53;;;;;;;24.03;21.53;;;13.50;99.40;;;;;;5030770;28;20500;-83
2022/03/17 02:15:08;;;;;;;24.07;21.20;;;12.60;99.10;;;;;;5029248;28;20788;-85
2022/03/17 02:17:39;;;;;;;24.53;22.00;;;12.70;99.30;;;;;;5031890;28;20418;-84
2022/03/17 02:20:10;;;;;;;26.20;21.90;;;14.70;99.80;;;;;;5025446;28;20434;-84
2022/03/17 02:22:45;;;;;;;25.20;22.60;;;12.50;98.60;;;;;;5028654;28;20427;-85
2022/03/17 02:27:58;;;;;;;25.70;22.40;;;12.60;98.90;;;;;;5027563;28;20857;-83
2022/03/17 02:30:24;;;;;;;24.63;20.60;;;13.90;99.70;;;;;;5024991;28;20797;-85
2022/03/17 02:33:19;;;;;;;24.47;21.30;;;14.50;99.90;;;;;;5028297;28;20502;-83
2022/03/17 02:35:53;;;;;;;24.30;21.80;;;12.50;99.20;;;;;;5009250;28;20706;-83
2022/03/17 02:38:21;;;;;;;27.07;22.67;;;12.90;99.50;;;;;;5016006;28;20519;-83
2022/03/17 02:40:50;;;;;;;23.60;21.00;;;12.40;99.10;;;;;;5026210;28;20962;-84
2022/03/17 02:43:16;;;;;;;25.60;21.70;;;14.70;99.90;;;;;;5026084;28;20484;-84
2022/03/17 02:45:44;;;;;;;23.20;20.67;;;14.50;99.90;;;;;;5024060;28;20951;-83
2022/03/17 02:48:10;;;;;;;25.77;22.17;;;12.70;99.60;;;;;;5026254;28;20840;-83
2022/03/17 02:50:37;;;;;;;26.17;23.33;;;11.50;98.40;;;;;;5025962;28;20848;-83
2022/03/17 02:53:10;;;;;;;25.50;20.10;;;11.80;98.40;;;;;;5026110;28;20985;-84
2022/03/17 02:55:46;;;;;;;23.23;20.80;;;14.20;99.90;;;;;;5024539;28;20963;-84
2022/03/17 02:58:13;;;;;;;24.83;22.20;;;13.10;99.80;;;;;;5026189;28;20525;-83
2022/03/17 03:00:42;;;;;;;25.30;22.70;;;12.60;99.40;;;;;;5025500;28;20765;-83
2022/03/17 03:03:17;;;;;;;25.47;22.77;;;12.60;98.80;;;;;;5020226;28;20430;-83
2022/03/17 03:05:43;;;;;;;23.40;20.17;;;11.70;99.90;;;;;;5024315;28;20461;-83
2022/03/17 03:08:27;;;;;;;25.03;22.30;;;14.10;99.90;;;;;;5027089;28;20473;-83
2022/03/17 03:10:57;;;;;;;25.93;22.13;;;12.00;99.30;;;;;;5050127;28;20472;-83
2022/03/17 03:13:22;;;;;;;25.30;22.60;;;12.50;99.90;;;;;;5027160;28;20740;-83
2022/03/17 03:15:50;;;;;;;24.40;21.80;;;12.50;99.90;;;;;;5023885;28;20525;-83
2022/03/17 03:18:29;;;;;;;24.77;21.73;;;12.70;99.90;;;;;;5035312;28;20556;-82
2022/03/17 03:20:55;;;;;;;26.73;22.90;;;12.80;99.40;;;;;;5040430;28;20542;-83
2022/03/17 03:23:21;;;;;;;24.17;20.80;;;12.90;99.90;;;;;;5026729;28;20513;-83
2022/03/17 03:26:02;;;;;;;28.70;24.43;;;12.50;99.90;;;;;;5023683;28;20442;-84
2022/03/17 03:28:31;;;;;;;26.23;21.80;;;12.50;99.90;;;;;;5024644;28;20195;-84
2022/03/17 03:30:58;;;;;;;26.63;23.80;;;12.50;99.90;;;;;;5024044;28;20525;-83
2022/03/17 03:33:24;;;;;;;25.63;22.33;;;14.00;99.90;;;;;;5005204;28;20439;-84
2022/03/17 03:38:34;;;;;;;26.43;23.53;;;12.60;99.90;;;;;;5019453;28;20207;-83
2022/03/17 03:41:08;;;;;;;25.90;23.30;;;13.00;99.90;;;;;;5024049;28;20854;-84
2022/03/17 03:43:34;;;;;;;25.07;22.03;;;12.80;99.90;;;;;;5038776;28;20184;-84
2022/03/17 03:45:59;;;;;;;25.87;21.67;;;13.70;99.90;;;;;;5023689;28;20820;-84
2022/03/17 03:48:43;;;;;;;25.80;22.53;;;12.70;99.90;;;;;;5041827;28;20215;-84
2022/03/17 03:51:16;;;;;;;25.80;23.10;;;12.30;99.90;;;;;;5023914;28;20863;-85
2022/03/17 03:56:29;;;;;;;28.17;22.70;;;12.70;99.90;;;;;;5023124;28;20508;-84
2022/03/17 03:58:55;;;;;;;26.83;24.00;;;12.70;99.90;;;;;;5026258;28;20922;-84
2022/03/17 04:01:37;;;;;;;29.17;22.07;;;12.60;99.90;;;;;;5024209;28;20443;-83
2022/03/17 04:04:05;;;;;;;24.67;22.07;;;12.60;99.90;;;;;;5027216;28;20418;-84
2022/03/17 04:06:45;;;;;;;28.43;23.43;;;15.00;99.90;;;;;;5026119;28;20829;-84
2022/03/17 04:09:14;;;;;;;24.77;21.40;;;13.20;99.90;;;;;;5019201;28;20544;-84
2022/03/17 04:11:43;;;;;;;27.70;21.53;;;12.60;99.90;;;;;;5027913;28;21102;-84
2022/03/17 04:14:24;;;;;;;;;;;;;;;;;;;;;
2022/03/17 04:17:04;;;;;;;25.73;22.50;;;12.70;99.90;;;;;;5029172;28;20772;-85
2022/03/17 04:19:34;;;;;;;34.50;21.00;;;12.80;99.90;;;;;;5017454;28;20528;-83
2022/03/17 04:22:03;;;;;;;26.63;23.67;;;14.20;99.90;;;;;;5030913;28;20438;-84
2022/03/17 04:24:29;;;;;;;29.70;23.57;;;12.30;99.90;;;;;;5030113;28;20430;-84
2022/03/17 04:26:55;;;;;;;25.40;22.17;;;14.10;99.90;;;;;;5062254;28;20478;-84
2022/03/17 04:29:21;;;;;;;31.20;26.00;;;13.70;99.90;;;;;;5028462;28;20426;-85
2022/03/17 04:31:47;;;;;;;31.23;23.37;;;12.20;99.90;;;;;;5028481;28;20191;-84
2022/03/17 04:34:22;;;;;;;32.43;25.47;;;12.30;99.90;;;;;;5029696;28;20472;-84
2022/03/17 04:36:48;;;;;;;28.43;24.83;;;13.40;99.90;;;;;;5043904;28;20209;-84
2022/03/17 04:39:14;;;;;;;33.47;26.03;;;12.70;99.90;;;;;;5031457;28;20915;-84
2022/03/17 04:42:40;;;;;;;27.50;24.57;;;12.10;99.90;;;;;;5030197;28;20195;-87
2022/03/17 04:45:06;;;;;;;32.47;26.47;;;11.80;99.90;;;;;;5027351;28;20430;-84
2022/03/17 04:47:32;;;;;;;29.60;25.30;;;11.70;99.90;;;;;;5029221;28;20872;-85
2022/03/17 04:49:57;;;;;;;27.10;24.20;;;11.30;99.90;;;;;;5028981;28;20434;-83
2022/03/17 04:55:10;;;;;;;35.10;25.90;;;13.80;99.90;;;;;;5024080;28;20683;-83
2022/03/17 04:57:36;;;;;;;28.50;24.53;;;11.70;99.90;;;;;;5030092;28;20415;-80
2022/03/17 05:00:08;;;;;;;34.20;27.93;;;13.70;99.90;;;;;;5029305;28;20958;-85
2022/03/17 05:02:39;;;;;;;38.37;30.23;;;11.30;99.90;;;;;;5030447;28;20168;-83
2022/03/17 05:05:15;;;;;;;35.60;28.23;;;13.20;99.90;;;;;;5021463;28;20463;-83
2022/03/17 05:07:41;;;;;;;36.53;26.90;;;11.10;99.90;;;;;;5028975;28;20476;-83
2022/03/17 05:10:12;;;;;;;39.07;31.47;;;12.60;99.90;;;;;;5028547;28;20821;-84
2022/03/17 05:12:39;;;;;;;40.43;29.80;;;10.90;99.90;;;;;;5006665;28;20278;-83
2022/03/17 05:15:08;;;;;;;36.10;28.53;;;10.30;99.90;;;;;;5028276;28;20679;-83
2022/03/17 05:17:47;;;;;;;40.33;28.97;;;10.70;99.90;;;;;;5031890;28;20439;-84
2022/03/17 05:20:15;;;;;;;38.10;30.37;;;12.00;99.90;;;;;;5027851;28;20442;-84
2022/03/17 05:22:48;;;;;;;44.30;30.67;;;10.20;99.90;;;;;;5024141;28;20442;-83
2022/03/17 05:25:26;;;;;;;38.47;30.40;;;10.60;99.90;;;;;;5129987;22;20480;-92
2022/03/17 05:27:52;;;;;;;44.47;29.57;;;10.50;99.90;;;;;;5073428;28;20441;-88
2022/03/17 05:30:19;;;;;;;43.70;30.30;;;12.40;99.90;;;;;;5073418;28;20484;-90
2022/03/17 05:32:49;;;;;;;45.97;34.13;;;12.70;99.90;;;;;;5074263;28;20445;-91
2022/03/17 05:35:18;;;;;;;53.53;33.67;;;10.80;99.90;;;;;;5067975;28;20425;-90
2022/03/17 05:37:45;;;;;;;46.10;31.97;;;11.80;99.90;;;;;;5086902;28;20420;-92
2022/03/17 05:40:23;;;;;;;50.17;35.33;;;10.90;99.90;;;;;;5073099;28;20449;-92
2022/03/17 05:42:59;;;;;;;53.30;36.57;;;11.30;99.90;;;;;;5088713;28;20424;-93
2022/03/17 05:45:28;;;;;;;55.13;39.23;;;8.90;99.90;;;;;;5069380;28;20462;-93
2022/03/17 05:48:00;;;;;;;54.43;38.47;;;9.70;99.90;;;;;;5081357;28;20476;-92
2022/03/17 05:50:31;;;;;;;52.83;38.07;;;10.40;99.90;;;;;;5079573;28;20409;-90
2022/03/17 05:53:00;;;;;;;51.07;38.60;;;10.70;99.90;;;;;;5077901;28;20500;-91
2022/03/17 05:55:27;;;;;;;60.03;41.43;;;11.80;99.90;;;;;;5049772;28;20434;-91
2022/03/17 05:57:59;;;;;;;57.60;38.43;;;12.40;99.90;;;;;;5046733;28;20429;-86
2022/03/17 06:00:26;;;;;;;56.67;37.90;;;10.60;99.90;;;;;;5030520;28;20426;-92
2022/03/17 06:03:08;;;;;;;;;;;;;;;;;;;;;
2022/03/17 06:06:03;;;;;;;58.27;38.77;;;12.60;99.90;;;;;;5054140;28;20443;-87
2022/03/17 06:08:28;;;;;;;58.90;39.70;;;10.00;99.90;;;;;;5016715;23;20498;-79
2022/03/17 06:10:54;;;;;;;65.23;41.30;;;9.40;99.90;;;;;;5023755;28;21185;-80
2022/03/17 06:13:20;;;;;;;54.47;36.50;;;9.90;99.90;;;;;;5012764;28;20696;-81
2022/03/17 06:15:46;;;;;;;65.73;42.13;;;9.90;99.90;;;;;;5021719;28;20262;-81
2022/03/17 06:18:11;;;;;;;61.83;40.83;;;9.90;99.90;;;;;;4993059;28;20881;-79
2022/03/17 06:20:38;;;;;;;64.73;43.20;;;10.00;99.90;;;;;;4998991;28;20603;-81
2022/03/17 06:23:05;;;;;;;65.27;43.67;;;10.10;99.90;;;;;;4993717;28;20200;-79
2022/03/17 06:25:33;;;;;;;63.90;39.33;;;10.10;99.90;;;;;;4995227;28;20455;-82
2022/03/17 06:27:59;;;;;;;58.30;39.67;;;10.10;99.90;;;;;;5005395;28;20475;-79
2022/03/17 06:30:28;;;;;;;64.03;42.90;;;9.90;99.90;;;;;;5013223;28;20512;-80
2022/03/17 06:32:54;;;;;;;54.57;35.70;;;10.00;99.90;;;;;;5017991;28;20704;-81
2022/03/17 06:35:23;;;;;;;59.40;38.10;;;10.00;99.90;;;;;;5017510;28;20410;-79
2022/03/17 06:37:51;;;;;;;61.50;38.80;;;9.80;99.90;;;;;;5024487;28;20430;-79
2022/03/17 06:40:17;;;;;;;59.30;40.60;;;9.90;99.90;;;;;;5018978;28;20407;-80
2022/03/17 06:42:44;;;;;;;45.30;33.37;;;9.90;99.90;;;;;;5018006;28;20470;-80
2022/03/17 06:45:10;;;;;;;37.23;25.10;;;9.90;99.90;;;;;;5028674;28;20453;-81
2022/03/17 06:47:38;;;;;;;35.87;26.93;;;9.90;99.90;;;;;;5007520;28;20481;-79
2022/03/17 06:50:04;;;;;;;36.63;26.17;;;9.70;99.90;;;;;;5027224;28;20168;-81
2022/03/17 06:52:30;;;;;;;33.73;25.90;;;9.60;99.90;;;;;;5025301;28;20634;-76
2022/03/17 06:54:55;;;;;;;30.90;22.90;;;9.60;99.90;;;;;;4998828;28;20503;-81
2022/03/17 06:57:22;;;;;;;38.30;27.13;;;9.60;99.90;;;;;;5011163;28;20196;-80
2022/03/17 06:59:48;;;;;;;36.83;26.40;;;9.80;99.90;;;;;;5019027;28;20652;-81
2022/03/17 07:02:15;;;;;;;46.53;25.87;;;9.50;99.90;;;;;;5012506;28;20438;-80
2022/03/17 07:04:41;;;;;;;34.37;24.97;;;9.50;99.90;;;;;;5007922;28;20418;-81
2022/03/17 07:07:07;;;;;;;35.60;21.30;;;9.40;99.90;;;;;;5021386;28;20491;-81
2022/03/17 07:09:33;;;;;;;38.93;23.30;;;9.40;99.90;;;;;;5026559;28;20410;-80
2022/03/17 07:11:59;;;;;;;31.60;22.40;;;9.40;99.90;;;;;;5023506;28;20442;-80
2022/03/17 07:14:24;;;;;;;33.10;21.57;;;9.40;99.90;;;;;;5006362;28;20798;-80
2022/03/17 07:16:50;;;;;;;29.07;20.37;;;9.40;99.90;;;;;;5023223;28;20192;-81
2022/03/17 07:19:16;;;;;;;28.40;19.00;;;9.30;99.90;;;;;;5022728;28;20222;-81
2022/03/17 07:21:42;;;;;;;26.87;19.20;;;9.20;99.90;;;;;;5010545;28;20204;-81
2022/03/17 07:24:09;;;;;;;26.93;19.33;;;9.50;99.90;;;;;;5028064;28;20168;-78
2022/03/17 07:26:35;;;;;;;26.03;18.03;;;9.60;99.90;;;;;;5008594;28;20461;-81
2022/03/17 07:29:02;;;;;;;26.03;18.20;;;9.90;99.90;;;;;;5026649;28;20417;-80
2022/03/17 07:31:28;;;;;;;31.23;20.83;;;9.30;99.90;;;;;;5005453;28;20500;-81
2022/03/17 07:33:54;;;;;;;25.80;19.17;;;9.30;99.90;;;;;;5026021;28;20840;-79
2022/03/17 07:36:20;;;;;;;28.93;20.30;;;9.20;99.90;;;;;;5018583;28;20439;-80
2022/03/17 07:38:47;;;;;;;27.37;19.97;;;9.60;99.90;;;;;;5001053;28;20188;-79
2022/03/17 07:41:13;;;;;;;28.50;21.73;;;9.20;99.90;;;;;;5022287;28;20534;-78
2022/03/17 07:43:41;;;;;;;25.10;18.53;;;9.20;99.90;;;;;;5022625;28;20215;-80
2022/03/17 07:46:07;;;;;;;26.20;17.40;;;9.10;99.90;;;;;;5024102;28;20518;-80
2022/03/17 07:48:32;;;;;;;18.57;14.47;;;8.90;99.90;;;;;;5025935;28;20466;-80
2022/03/17 07:50:58;;;;;;;19.60;16.13;;;8.90;99.90;;;;;;5019137;28;20435;-82
2022/03/17 07:53:24;;;;;;;18.60;15.73;;;9.30;99.90;;;;;;5018960;28;20741;-80
2022/03/17 07:55:54;;;;;;;43.80;15.53;;;8.60;99.90;;;;;;5018793;28;20672;-81
2022/03/17 07:58:23;;;;;;;18.43;13.80;;;8.60;99.90;;;;;;5010699;28;20503;-81
2022/03/17 08:00:50;;;;;;;15.30;13.57;;;8.60;99.90;;;;;;5016820;28;20431;-81
2022/03/17 08:03:16;;;;;;;20.10;13.13;;;8.60;99.90;;;;;;5023564;28;20526;-82
2022/03/17 08:05:44;;;;;;;18.40;14.30;;;8.60;99.90;;;;;;4314307;28;10000669;-82
2022/03/17 08:08:09;;;;;;;15.23;13.70;;;8.60;99.90;;;;;;5011908;28;20239;-82
2022/03/17 08:10:35;;;;;;;13.70;11.30;;;8.60;99.90;;;;;;4994110;28;20447;-80
2022/03/17 08:13:02;;;;;;;16.00;12.03;;;8.70;99.90;;;;;;5020659;28;20873;-81
2022/03/17 08:15:27;;;;;;;12.23;10.90;;;8.60;99.90;;;;;;4995600;28;20271;-79
2022/03/17 08:17:53;;;;;;;14.33;11.00;;;8.60;99.90;;;;;;5012255;28;20442;-79
2022/03/17 08:20:19;;;;;;;10.73;9.63;;;8.70;99.90;;;;;;5005650;28;20191;-79
2022/03/17 08:22:45;;;;;;;17.23;9.93;;;8.80;99.90;;;;;;5010874;28;20202;-79
2022/03/17 08:25:11;;;;;;;13.67;9.97;;;8.80;99.90;;;;;;5012149;28;21011;-80
2022/03/17 08:27:40;;;;;;;10.97;6.90;;;8.80;99.90;;;;;;5015885;28;20475;-81
2022/03/17 08:30:06;;;;;;;9.57;6.70;;;8.80;99.90;;;;;;5021038;28;20191;-81
2022/03/17 08:32:32;;;;;;;8.77;7.83;;;8.70;99.90;;;;;;4998618;28;20856;-81
2022/03/17 08:34:57;;;;;;;15.40;8.50;;;8.70;99.90;;;;;;5012738;28;20515;-83
2022/03/17 08:37:23;;;;;;;13.60;7.90;;;8.70;99.90;;;;;;5017175;28;20278;-81
2022/03/17 08:39:49;;;;;;;10.00;9.00;;;8.70;99.90;;;;;;5011572;28;20982;-80
2022/03/17 08:42:14;;;;;;;8.57;7.80;;;8.70;99.90;;;;;;5009119;28;20775;-79
2022/03/17 08:44:40;;;;;;;11.50;7.80;;;8.00;99.90;;;;;;5011886;28;20188;-81
2022/03/17 08:49:50;;;;;;;18.73;7.87;;;8.70;99.90;;;;;;5015019;28;20548;-79
2022/03/17 08:52:16;;;;;;;9.63;7.20;;;8.80;99.90;;;;;;4991044;28;20847;-79
2022/03/17 08:54:44;;;;;;;8.33;7.03;;;8.80;99.90;;;;;;5017659;28;20542;-80
2022/03/17 08:57:11;;;;;;;7.37;5.90;;;8.90;99.90;;;;;;5022908;28;20570;-81
2022/03/17 08:59:37;;;;;;;8.77;5.93;;;8.90;99.90;;;;;;5016536;28;20470;-80
2022/03/17 09:02:07;;;;;;;6.00;5.50;;;8.90;99.90;;;;;;5017281;28;20229;-82
2022/03/17 09:04:34;;;;;;;5.73;5.30;;;9.00;99.90;;;;;;5021298;28;20465;-80
2022/03/17 09:07:00;;;;;;;5.13;4.70;;;9.30;99.90;;;;;;5021301;28;20485;-81
2022/03/17 09:09:34;;;;;;;6.40;4.90;;;9.10;99.90;;;;;;4994448;28;20498;-78
2022/03/17 09:12:05;;;;;;;6.47;5.00;;;9.20;99.90;;;;;;5013096;28;20435;-80
2022/03/17 09:14:32;;;;;;;5.73;5.07;;;9.20;99.90;;;;;;5028337;28;20422;-76
2022/03/17 09:17:00;;;;;;;9.17;6.00;;;10.00;99.90;;;;;;4649891;28;10000077;-77
2022/03/17 09:19:26;;;;;;;13.03;9.80;;;9.30;99.90;;;;;;4994680;28;20675;-77
2022/03/17 09:21:51;;;;;;;6.97;6.40;;;9.80;99.90;;;;;;5001019;28;20442;-78
2022/03/17 09:24:17;;;;;;;6.13;5.77;;;9.30;99.90;;;;;;5016438;28;20218;-80
2022/03/17 09:26:43;;;;;;;8.53;6.13;;;9.30;99.90;;;;;;5002477;28;20214;-80
2022/03/17 09:29:09;;;;;;;6.23;5.50;;;9.20;99.90;;;;;;5018849;28;20431;-79
2022/03/17 09:31:35;;;;;;;7.20;6.47;;;9.30;99.90;;;;;;5018267;28;20207;-80
2022/03/17 09:34:01;;;;;;;5.40;5.20;;;9.30;99.90;;;;;;5023169;28;20733;-80
2022/03/17 09:36:27;;;;;;;6.50;5.20;;;9.20;99.90;;;;;;4993953;28;20557;-80
2022/03/17 09:41:36;;;;;;;5.23;4.67;;;9.40;99.90;;;;;;5017982;28;20789;-79
2022/03/17 09:44:03;;;;;;;5.30;4.80;;;9.30;99.90;;;;;;5017888;28;20553;-79
2022/03/17 09:46:31;;;;;;;6.03;4.43;;;9.40;99.90;;;;;;5013075;28;20674;-80
2022/03/17 09:48:58;;;;;;;7.13;4.90;;;9.50;99.90;;;;;;5016149;28;20441;-80
2022/03/17 09:51:26;;;;;;;4.70;4.50;;;9.50;99.90;;;;;;5017509;28;20825;-80
2022/03/17 09:53:54;;;;;;;5.47;3.75;;;9.50;99.90;;;;;;5021318;28;20466;-81
2022/03/17 09:56:23;;;;;;;4.23;4.03;;;9.50;99.90;;;;;;5013891;28;20385;-82
2022/03/17 09:58:53;;;;;;;7.40;5.07;;;9.50;99.90;;;;;;5012373;28;20645;-80
2022/03/17 10:01:21;;;;;;;7.97;3.80;;;9.30;99.90;;;;;;5011196;28;20812;-81
2022/03/17 10:03:47;;;;;;;6.73;5.00;;;9.30;99.90;;;;;;5011330;28;20447;-79
2022/03/17 10:06:14;;;;;;;7.18;5.15;;;9.30;99.90;;;;;;4991218;28;20436;-81
2022/03/17 10:08:42;;;;;;;7.30;5.70;;;9.40;99.90;;;;;;5022120;28;20758;-81
2022/03/17 10:11:12;;;;;;;9.50;7.43;;;9.60;99.90;;;;;;5013404;28;20526;-83
2022/03/17 10:13:45;;;;;;;6.93;5.87;;;9.70;99.90;;;;;;5013220;28;20439;-81
2022/03/17 10:16:13;;;;;;;9.30;5.60;;;9.90;99.90;;;;;;4996184;28;20999;-84
2022/03/17 10:18:39;;;;;;;8.83;4.73;;;10.10;99.90;;;;;;5013437;28;20703;-81
2022/03/17 10:21:12;;;;;;;6.90;4.47;;;10.80;99.90;;;;;;4991483;28;20478;-81
2022/03/17 10:23:49;;;;;;;6.97;5.20;;;10.10;99.90;;;;;;4994622;28;20435;-81
2022/03/17 10:26:38;;;;;;;6.03;5.23;;;10.20;99.90;;;;;;5008871;28;20452;-83
2022/03/17 10:29:19;;;;;;;5.40;4.50;;;10.20;99.90;;;;;;5014950;28;20885;-82
2022/03/17 10:32:05;;;;;;;7.73;4.60;;;10.20;99.90;;;;;;4997619;28;20612;-81
2022/03/17 10:34:45;;;;;;;9.27;5.00;;;9.90;99.90;;;;;;5014881;28;20504;-82
2022/03/17 10:37:19;;;;;;;8.43;5.60;;;10.00;99.90;;;;;;5006816;28;20679;-85
2022/03/17 10:39:52;;;;;;;7.90;5.57;;;9.80;99.90;;;;;;5013093;28;20496;-81
2022/03/17 10:42:26;;;;;;;5.90;5.43;;;9.80;99.90;;;;;;5012193;28;20416;-83
2022/03/17 10:44:55;;;;;;;13.57;6.23;;;9.80;99.90;;;;;;4999761;28;20438;-82
2022/03/17 10:47:25;;;;;;;8.07;6.00;;;9.80;99.90;;;;;;5018559;28;21022;-80
2022/03/17 10:50:07;;;;;;;10.00;6.00;;;10.00;99.90;;;;;;4996651;28;20578;-80
2022/03/17 10:52:56;;;;;;;10.33;5.33;;;10.00;99.90;;;;;;5015140;28;20423;-80
2022/03/17 10:55:30;;;;;;;10.40;5.57;;;9.90;99.90;;;;;;5017503;28;20943;-81
2022/03/17 10:58:12;;;;;;;8.23;4.20;;;9.90;99.90;;;;;;5015721;28;20919;-80
2022/03/17 11:00:52;;;;;;;7.20;5.27;;;9.80;99.90;;;;;;5014891;28;20485;-80
2022/03/17 11:03:19;;;;;;;5.17;4.27;;;9.80;99.90;;;;;;5010112;28;20423;-81
2022/03/17 11:05:45;;;;;;;6.17;3.67;;;9.80;99.90;;;;;;5001951;28;20965;-81
2022/03/17 11:08:11;;;;;;;7.93;4.00;;;9.80;99.90;;;;;;5007667;28;20566;-81
2022/03/17 11:10:39;;;;;;;7.43;4.07;;;9.80;99.90;;;;;;5010904;28;20534;-82
2022/03/17 11:13:11;;;;;;;6.63;5.00;;;9.80;99.90;;;;;;5016484;28;20453;-80
2022/03/17 11:15:43;;;;;;;4.20;3.90;;;9.90;99.90;;;;;;5006074;28;20782;-82
2022/03/17 11:18:21;;;;;;;7.97;5.40;;;10.10;99.90;;;;;;5000991;28;20455;-81
2022/03/17 11:20:47;;;;;;;6.50;4.50;;;10.30;99.90;;;;;;5009886;28;20478;-82
2022/03/17 11:23:35;;;;;;;5.50;4.90;;;10.50;99.90;;;;;;5016692;28;20431;-82
2022/03/17 11:26:00;;;;;;;7.00;3.90;;;10.80;99.90;;;;;;5012575;28;20447;-82
2022/03/17 11:28:37;;;;;;;7.17;3.23;;;10.80;99.90;;;;;;5011054;28;20563;-81
2022/03/17 11:31:07;;;;;;;5.23;3.37;;;10.80;99.90;;;;;;5021099;28;20671;-82
2022/03/17 11:33:39;;;;;;;4.43;3.40;;;10.70;99.90;;;;;;5026183;28;20433;-78
2022/03/17 11:36:08;;;;;;;3.90;2.93;;;11.10;99.90;;;;;;5004872;28;20893;-82
2022/03/17 11:38:38;;;;;;;13.70;5.20;;;11.10;99.90;;;;;;5017507;28;20427;-83
2022/03/17 11:41:16;;;;;;;5.50;3.73;;;11.20;99.90;;;;;;5018090;28;20419;-80
2022/03/17 11:44:00;;;;;;;6.10;2.30;;;11.30;99.90;;;;;;5013335;28;20427;-80
2022/03/17 11:46:40;;;;;;;3.43;2.23;;;11.50;99.90;;;;;;5010576;28;20462;-81
2022/03/17 11:49:24;;;;;;;5.50;2.40;;;11.70;99.90;;;;;;5010736;28;20470;-81
2022/03/17 11:52:04;;;;;;;9.17;2.37;;;11.90;99.90;;;;;;5006315;28;20426;-82
2022/03/17 11:54:31;;;;;;;5.00;2.70;;;12.10;99.90;;;;;;5005359;28;20435;-82
2022/03/17 11:57:05;;;;;;;5.67;2.13;;;12.30;99.90;;;;;;5057867;23;20482;-82
2022/03/17 11:59:55;;;;;;;4.60;3.10;;;12.50;99.90;;;;;;5045895;28;20784;-82
2022/03/17 12:02:30;;;;;;;2.53;2.10;;;12.60;99.90;;;;;;5061693;28;20429;-85
2022/03/17 12:05:12;;;;;;;4.37;2.77;;;12.20;99.90;;;;;;5056290;28;20483;-88
2022/03/17 12:07:48;;;;;;;8.70;2.57;;;13.40;99.90;;;;;;5036108;28;20510;-77
2022/03/17 12:10:52;;;;;;;6.00;2.43;;;14.10;97.30;;;;;;5043199;28;20430;-82
2022/03/17 12:13:22;;;;;;;4.13;2.30;;;14.60;95.00;;;;;;5045519;28;20425;-83
2022/03/17 12:15:57;;;;;;;4.57;2.57;;;14.50;92.10;;;;;;5061082;28;20469;-87
2022/03/17 12:18:23;;;;;;;8.20;2.80;;;14.80;90.10;;;;;;5051564;28;20405;-86
2022/03/17 12:20:54;;;;;;;2.43;2.20;;;14.60;89.70;;;;;;5062067;28;20451;-86
2022/03/17 12:23:49;;;;;;;4.00;2.27;;;14.10;84.30;;;;;;5043679;28;20207;-87
2022/03/17 12:26:21;;;;;;;5.13;2.33;;;14.20;84.30;;;;;;5059138;28;20437;-84
2022/03/17 12:28:47;;;;;;;5.23;2.20;;;13.20;91.00;;;;;;5058943;28;20465;-84
2022/03/17 12:31:14;;;;;;;11.40;2.53;;;13.10;92.90;;;;;;5052529;28;20417;-88
2022/03/17 12:33:43;;;;;;;4.83;2.13;;;14.60;94.50;;;;;;5057203;28;20183;-88
2022/03/17 12:36:15;;;;;;;3.67;2.20;;;13.40;94.00;;;;;;5044465;28;20654;-87
2022/03/17 12:38:41;;;;;;;2.27;2.10;;;13.50;91.80;;;;;;5054580;28;20426;-88
2022/03/17 12:41:15;;;;;;;7.20;2.77;;;13.50;92.10;;;;;;5046413;28;20430;-83
2022/03/17 12:43:41;;;;;;;6.23;2.53;;;13.50;92.70;;;;;;4720356;28;9999897;-87
2022/03/17 12:46:07;;;;;;;5.30;1.83;;;13.50;92.20;;;;;;5055106;28;20630;-87
2022/03/17 12:48:34;;;;;;;7.97;3.13;;;13.50;93.40;;;;;;5067167;28;20476;-87
2022/03/17 12:51:09;;;;;;;5.90;2.80;;;13.30;91.10;;;;;;5062599;28;20209;-86
2022/03/17 12:53:35;;;;;;;4.10;2.60;;;13.30;92.50;;;;;;5060449;28;20425;-87
2022/03/17 12:56:01;;;;;;;4.57;2.40;;;13.30;93.40;;;;;;5051946;28;20947;-88
2022/03/17 12:58:26;;;;;;;3.00;2.57;;;13.30;92.90;;;;;;5053401;28;20257;-88
2022/03/17 13:00:52;;;;;;;2.50;2.30;;;13.50;91.50;;;;;;5055128;28;20206;-89
2022/03/17 13:03:25;;;;;;;10.73;2.40;;;13.50;91.00;;;;;;5057385;28;20202;-86
2022/03/17 13:08:38;;;;;;;7.73;2.53;;;13.50;88.30;;;;;;5052248;28;20499;-86
2022/03/17 13:16:44;;;;;;;8.33;2.57;;;13.10;88.10;;;;;;5051475;28;20521;-86
2022/03/17 13:19:19;;;;;;;4.80;2.40;;;12.90;89.80;;;;;;5054063;28;20405;-88
2022/03/17 13:21:46;;;;;;;3.60;3.30;;;12.80;88.00;;;;;;5039467;28;20480;-82
2022/03/17 13:24:15;;;;;;;3.30;2.37;;;13.80;92.30;;;;;;5050167;28;20414;-84
2022/03/17 13:26:42;;;;;;;5.60;2.30;;;12.10;88.70;;;;;;5048548;28;20418;-82